createdAt,value
2023-05-01T00:00:22.854Z,8.80
2023-05-01T00:02:57.690Z,8.77
2023-05-01T00:05:30.008Z,8.73
2023-05-01T00:08:02.951Z,8.71
2023-05-01T00:10:35.097Z,8.67
2023-05-01T00:13:07.683Z,8.63
2023-05-01T00:15:40.313Z,8.58
2023-05-01T00:18:15.141Z,8.54
2023-05-01T00:20:47.416Z,8.52
2023-05-01T00:23:19.594Z,8.50
2023-05-01T00:25:52.351Z,8.49
2023-05-01T00:28:24.588Z,8.49
2023-05-01T00:30:56.845Z,8.48
2023-05-01T00:33:31.659Z,8.48
2023-05-01T00:36:04.279Z,8.47
2023-05-01T00:38:36.451Z,8.44
2023-05-01T00:41:08.676Z,8.42
2023-05-01T00:43:40.834Z,8.39
2023-05-01T00:46:14.404Z,8.36
2023-05-01T00:48:49.335Z,8.31
2023-05-01T00:51:22.674Z,8.26
2023-05-01T00:53:56.061Z,8.21
2023-05-01T00:56:28.699Z,8.16
2023-05-01T00:59:01.046Z,8.14
2023-05-01T01:01:34.925Z,8.11
2023-05-01T01:04:09.947Z,8.09
2023-05-01T01:06:56.204Z,8.08
2023-05-01T01:09:41.692Z,8.08
2023-05-01T01:12:26.888Z,8.09
2023-05-01T01:15:18.362Z,8.08
2023-05-01T01:18:02.448Z,8.05
2023-05-01T01:20:45.450Z,8.03
2023-05-01T01:23:50.264Z,7.97
2023-05-01T01:26:58.765Z,7.96
2023-05-01T01:29:55.032Z,7.95
2023-05-01T01:33:03.999Z,7.94
2023-05-01T01:35:42.391Z,7.93
2023-05-01T01:38:22.897Z,7.91
2023-05-01T01:41:02.575Z,7.89
2023-05-01T01:43:42.435Z,7.86
2023-05-01T01:46:16.815Z,7.86
2023-05-01T01:48:54.223Z,7.89
2023-05-01T01:51:31.375Z,7.90
2023-05-01T01:54:06.571Z,7.91
2023-05-01T01:56:44.952Z,7.92
2023-05-01T01:59:21.253Z,7.93
2023-05-01T02:01:57.509Z,7.92
2023-05-01T02:04:33.932Z,7.90
2023-05-01T02:07:10.811Z,7.90
2023-05-01T02:09:46.434Z,7.91
2023-05-01T02:12:22.822Z,7.93
2023-05-01T02:14:57.544Z,7.96
2023-05-01T02:17:31.692Z,7.97
2023-05-01T02:20:05.605Z,7.98
2023-05-01T02:22:42.772Z,7.98
2023-05-01T02:25:18.152Z,7.98
2023-05-01T02:27:56.868Z,7.96
2023-05-01T02:30:29.181Z,7.94
2023-05-01T02:33:01.421Z,7.91
2023-05-01T02:35:33.576Z,7.89
2023-05-01T02:38:08.432Z,7.87
2023-05-01T02:40:43.632Z,7.86
2023-05-01T02:43:20.295Z,7.87
2023-05-01T02:45:55.401Z,7.85
2023-05-01T02:48:31.638Z,7.85
2023-05-01T02:51:06.651Z,7.85
2023-05-01T02:53:41.912Z,7.87
2023-05-01T02:56:14.123Z,7.88
2023-05-01T02:58:47.077Z,7.90
2023-05-01T03:01:19.909Z,7.91
2023-05-01T03:03:52.633Z,7.92
2023-05-01T03:06:24.945Z,7.96
2023-05-01T03:08:59.733Z,7.98
2023-05-01T03:11:31.878Z,8.00
2023-05-01T03:14:04.075Z,8.03
2023-05-01T03:16:36.279Z,8.06
2023-05-01T03:19:08.804Z,8.08
2023-05-01T03:21:41.138Z,8.09
2023-05-01T03:24:16.273Z,8.10
2023-05-01T03:26:48.721Z,8.18
2023-05-01T03:29:20.840Z,8.24
2023-05-01T03:31:53.107Z,8.29
2023-05-01T03:34:28.155Z,8.35
2023-05-01T03:37:00.775Z,8.39
2023-05-01T03:39:35.675Z,8.42
2023-05-01T03:42:08.032Z,8.45
2023-05-01T03:44:40.208Z,8.47
2023-05-01T03:47:12.476Z,8.49
2023-05-01T03:49:45.884Z,8.52
2023-05-01T03:52:18.114Z,8.58
2023-05-01T03:54:53.502Z,8.63
2023-05-01T03:57:27.221Z,8.67
2023-05-01T03:59:59.563Z,8.68
2023-05-01T04:02:32.139Z,8.66
2023-05-01T04:05:04.415Z,8.64
2023-05-01T04:07:36.741Z,8.64
2023-05-01T04:10:12.295Z,8.66
2023-05-01T04:12:44.427Z,8.70
2023-05-01T04:15:16.849Z,8.73
2023-05-01T04:17:49.597Z,8.74
2023-05-01T04:20:22.050Z,8.75
2023-05-01T04:22:55.154Z,8.77
2023-05-01T04:25:30.252Z,8.79
2023-05-01T04:28:02.418Z,8.81
2023-05-01T04:30:34.854Z,8.84
2023-05-01T04:33:11.683Z,8.88
2023-05-01T04:35:45.305Z,8.92
2023-05-01T04:38:17.525Z,8.93
2023-05-01T04:40:52.704Z,8.94
2023-05-01T04:43:24.895Z,8.96
2023-05-01T04:45:57.740Z,8.98
2023-05-01T04:48:30.033Z,8.97
2023-05-01T04:51:03.822Z,9.00
2023-05-01T04:53:36.709Z,9.00
2023-05-01T04:56:11.808Z,9.01
2023-05-01T04:58:44.012Z,9.01
2023-05-01T05:01:16.251Z,9.04
2023-05-01T05:03:50.192Z,9.07
2023-05-01T05:06:22.935Z,9.12
2023-05-01T05:08:57.432Z,9.16
2023-05-01T05:11:32.212Z,9.20
2023-05-01T05:14:04.466Z,9.25
2023-05-01T05:16:37.147Z,9.29
2023-05-01T05:19:09.416Z,9.33
2023-05-01T05:21:41.673Z,9.35
2023-05-01T05:24:13.833Z,9.37
2023-05-01T05:26:49.288Z,9.48
2023-05-01T05:29:21.695Z,9.56
2023-05-01T05:31:54.246Z,9.65
2023-05-01T05:34:26.758Z,9.71
2023-05-01T05:36:59.008Z,9.75
2023-05-01T05:39:31.784Z,9.78
2023-05-01T05:42:06.732Z,9.83
2023-05-01T05:44:39.446Z,9.89
2023-05-01T05:47:11.727Z,9.95
2023-05-01T05:49:43.993Z,9.99
2023-05-01T05:52:16.378Z,10.00
2023-05-01T05:54:48.922Z,10.02
2023-05-01T05:57:23.712Z,10.06
2023-05-01T05:59:56.271Z,10.12
2023-05-01T06:02:29.225Z,10.19
2023-05-01T06:05:01.541Z,10.26
2023-05-01T06:07:33.955Z,10.34
2023-05-01T06:10:06.846Z,10.42
2023-05-01T06:12:55.243Z,10.51
2023-05-01T06:15:31.394Z,10.63
2023-05-01T06:18:03.817Z,10.72
2023-05-01T06:20:36.831Z,10.80
2023-05-01T06:23:10.210Z,10.88
2023-05-01T06:25:42.990Z,10.96
2023-05-01T06:28:17.774Z,11.05
2023-05-01T06:30:50.000Z,11.15
2023-05-01T06:33:24.225Z,11.24
2023-05-01T06:35:59.816Z,11.35
2023-05-01T06:38:33.045Z,11.44
2023-05-01T06:41:05.436Z,11.54
2023-05-01T06:43:40.292Z,11.58
2023-05-01T06:46:12.753Z,11.63
2023-05-01T06:48:44.999Z,11.66
2023-05-01T06:51:17.363Z,11.69
2023-05-01T06:53:49.652Z,11.71
2023-05-01T06:56:21.833Z,11.74
2023-05-01T06:58:56.708Z,11.80
2023-05-01T07:01:28.935Z,11.91
2023-05-01T07:04:01.158Z,12.01
2023-05-01T07:06:33.519Z,12.11
2023-05-01T07:09:06.251Z,12.17
2023-05-01T07:11:38.727Z,12.23
2023-05-01T07:14:13.552Z,12.30
2023-05-01T07:16:46.081Z,12.35
2023-05-01T07:19:18.453Z,12.42
2023-05-01T07:21:50.653Z,12.49
2023-05-01T07:24:22.829Z,12.52
2023-05-01T07:26:56.698Z,12.67
2023-05-01T07:29:31.539Z,12.79
2023-05-01T07:32:06.054Z,12.91
2023-05-01T07:34:38.320Z,13.01
2023-05-01T07:37:10.495Z,13.10
2023-05-01T07:39:42.689Z,13.18
2023-05-01T07:42:14.813Z,13.22
2023-05-01T07:44:49.661Z,13.23
2023-05-01T07:47:21.862Z,13.23
2023-05-01T07:49:54.160Z,13.23
2023-05-01T07:52:26.489Z,13.25
2023-05-01T07:54:58.838Z,13.26
2023-05-01T07:57:33.605Z,13.27
2023-05-01T08:00:09.548Z,13.26
2023-05-01T08:02:41.983Z,13.25
2023-05-01T08:05:14.578Z,13.24
2023-05-01T08:07:46.779Z,13.30
2023-05-01T08:10:19.199Z,13.36
2023-05-01T08:12:51.329Z,13.45
2023-05-01T08:15:26.311Z,13.51
2023-05-01T08:17:58.683Z,13.54
2023-05-01T08:20:31.153Z,13.57
2023-05-01T08:23:03.472Z,13.60
2023-05-01T08:25:35.768Z,13.60
2023-05-01T08:28:08.351Z,13.59
2023-05-01T08:30:44.013Z,13.61
2023-05-01T08:33:16.512Z,13.65
2023-05-01T08:35:48.856Z,13.69
2023-05-01T08:38:21.129Z,13.73
2023-05-01T08:40:58.960Z,13.78
2023-05-01T08:43:31.751Z,13.82
2023-05-01T08:46:10.916Z,13.86
2023-05-01T08:48:47.248Z,13.90
2023-05-01T08:51:23.229Z,13.94
2023-05-01T08:53:58.652Z,13.97
2023-05-01T08:56:33.649Z,14.02
2023-05-01T08:59:09.009Z,14.10
2023-05-01T09:01:46.206Z,14.16
2023-05-01T09:04:20.327Z,14.20
2023-05-01T09:06:54.119Z,14.25
2023-05-01T09:09:26.341Z,14.31
2023-05-01T09:12:00.918Z,14.39
2023-05-01T09:14:35.431Z,14.52
2023-05-01T09:17:10.510Z,14.65
2023-05-01T09:19:43.518Z,14.77
2023-05-01T09:22:15.911Z,14.84
2023-05-01T09:24:48.290Z,14.89
2023-05-01T09:27:20.542Z,15.04
2023-05-01T09:29:53.419Z,15.14
2023-05-01T09:32:31.862Z,15.24
2023-05-01T09:35:17.717Z,15.37
2023-05-01T09:37:54.381Z,15.52
2023-05-01T09:40:31.917Z,15.73
2023-05-01T09:43:05.001Z,15.91
2023-05-01T09:45:39.005Z,16.07
2023-05-01T09:48:17.527Z,16.23
2023-05-01T09:50:49.733Z,16.37
2023-05-01T09:53:21.945Z,16.46
2023-05-01T09:56:05.257Z,16.56
2023-05-01T09:58:37.577Z,16.68
2023-05-01T10:01:10.477Z,16.80
2023-05-01T10:03:47.447Z,16.86
2023-05-01T10:06:32.127Z,16.91
2023-05-01T10:09:04.321Z,16.97
2023-05-01T10:11:52.412Z,17.04
2023-05-01T10:14:27.149Z,17.14
2023-05-01T10:16:59.804Z,17.19
2023-05-01T10:19:34.848Z,17.27
2023-05-01T10:22:07.705Z,17.33
2023-05-01T10:24:41.202Z,17.42
2023-05-01T10:27:14.010Z,17.55
2023-05-01T10:29:47.308Z,17.70
2023-05-01T10:32:19.690Z,17.91
2023-05-01T10:35:02.618Z,18.03
2023-05-01T10:37:43.623Z,18.14
2023-05-01T10:40:45.753Z,18.20
2023-05-01T10:43:28.815Z,18.28
2023-05-01T10:46:39.770Z,18.34
2023-05-01T10:49:13.007Z,18.41
2023-05-01T10:52:05.675Z,18.48
2023-05-01T10:54:38.115Z,18.64
2023-05-01T10:57:10.675Z,18.72
2023-05-01T11:00:12.501Z,18.76
2023-05-01T11:02:44.771Z,18.86
2023-05-01T11:05:23.701Z,18.95
2023-05-01T11:08:30.911Z,18.98
2023-05-01T11:11:40.609Z,18.98
2023-05-01T11:14:15.931Z,18.91
2023-05-01T11:16:50.333Z,18.82
2023-05-01T11:19:52.754Z,18.74
2023-05-01T11:22:28.783Z,18.60
2023-05-01T11:25:01.540Z,18.44
2023-05-01T11:27:34.186Z,18.49
2023-05-01T11:30:10.042Z,18.57
2023-05-01T11:32:42.403Z,18.64
2023-05-01T11:35:21.741Z,18.80
2023-05-01T11:37:56.331Z,18.97
2023-05-01T11:40:32.012Z,19.11
2023-05-01T11:43:12.894Z,19.25
2023-05-01T11:45:47.999Z,19.48
2023-05-01T11:48:20.287Z,19.71
2023-05-01T11:50:52.869Z,19.90
2023-05-01T11:53:25.142Z,20.01
2023-05-01T11:55:59.632Z,20.19
2023-05-01T11:58:38.005Z,20.41
2023-05-01T12:01:14.342Z,20.65
2023-05-01T12:03:47.882Z,20.80
2023-05-01T12:06:20.456Z,20.97
2023-05-01T12:08:54.653Z,21.15
2023-05-01T12:11:27.147Z,21.35
2023-05-01T12:13:59.692Z,21.46
2023-05-01T12:16:35.178Z,21.52
2023-05-01T12:19:08.975Z,21.57
2023-05-01T12:21:41.566Z,21.57
2023-05-01T12:24:16.252Z,21.34
2023-05-01T12:26:49.647Z,21.02
2023-05-01T12:29:21.833Z,20.61
2023-05-01T12:31:57.375Z,20.28
2023-05-01T12:34:34.565Z,19.89
2023-05-01T12:37:07.206Z,19.59
2023-05-01T12:39:45.170Z,19.26
2023-05-01T12:42:18.766Z,18.97
2023-05-01T12:44:52.856Z,18.72
2023-05-01T12:47:28.620Z,18.60
2023-05-01T12:50:07.712Z,18.52
2023-05-01T12:52:40.153Z,18.46
2023-05-01T12:55:13.266Z,18.41
2023-05-01T12:57:58.397Z,18.34
2023-05-01T13:00:30.987Z,18.26
2023-05-01T13:03:09.898Z,18.19
2023-05-01T13:05:53.518Z,18.08
2023-05-01T13:08:33.869Z,17.95
2023-05-01T13:11:13.714Z,17.79
2023-05-01T13:13:48.181Z,17.67
2023-05-01T13:16:21.494Z,17.58
2023-05-01T13:18:57.530Z,17.49
2023-05-01T13:21:31.330Z,17.39
2023-05-01T13:24:05.228Z,16.74
2023-05-01T13:26:39.693Z,16.64
2023-05-01T13:29:19.296Z,16.62
2023-05-01T13:31:51.605Z,16.59
2023-05-01T13:34:30.869Z,16.57
2023-05-01T13:37:04.827Z,16.54
2023-05-01T13:39:36.980Z,16.52
2023-05-01T13:42:10.683Z,16.49
2023-05-01T13:44:48.204Z,16.47
2023-05-01T13:47:23.414Z,16.45
2023-05-01T13:49:59.209Z,16.45
2023-05-01T13:52:32.514Z,16.46
2023-05-01T13:55:05.830Z,16.48
2023-05-01T13:57:41.686Z,16.50
2023-05-01T14:00:20.346Z,16.51
2023-05-01T14:02:55.400Z,16.50
2023-05-01T14:05:32.259Z,16.50
2023-05-01T14:08:04.495Z,16.50
2023-05-01T14:10:36.684Z,16.54
2023-05-01T14:13:10.085Z,16.62
2023-05-01T14:15:46.044Z,16.73
2023-05-01T14:18:20.979Z,16.93
2023-05-01T14:20:55.844Z,17.25
2023-05-01T14:23:28.404Z,17.59
2023-05-01T14:26:00.683Z,18.57
2023-05-01T14:28:35.257Z,20.14
2023-05-01T14:31:07.663Z,21.49
2023-05-01T14:33:47.370Z,22.77
2023-05-01T14:36:23.116Z,23.88
2023-05-01T14:38:56.434Z,24.85
2023-05-01T14:41:29.659Z,25.68
2023-05-01T14:44:01.882Z,26.18
2023-05-01T14:46:36.030Z,26.96
2023-05-01T14:49:08.345Z,27.57
2023-05-01T14:51:45.857Z,27.78
2023-05-01T14:54:19.001Z,27.80
2023-05-01T14:56:53.077Z,27.04
2023-05-01T14:59:25.850Z,25.31
2023-05-01T15:01:58.056Z,23.72
2023-05-01T15:04:33.469Z,22.26
2023-05-01T15:07:08.267Z,21.33
2023-05-01T15:09:40.571Z,20.57
2023-05-01T15:12:13.234Z,20.19
2023-05-01T15:14:45.821Z,19.99
2023-05-01T15:17:18.164Z,19.83
2023-05-01T15:19:50.528Z,19.65
2023-05-01T15:22:26.689Z,19.47
2023-05-01T15:24:59.034Z,19.05
2023-05-01T15:27:31.436Z,19.02
2023-05-01T15:30:05.529Z,18.98
2023-05-01T15:32:37.921Z,18.89
2023-05-01T15:35:10.575Z,18.83
2023-05-01T15:37:45.305Z,18.79
2023-05-01T15:40:17.842Z,18.79
2023-05-01T15:42:50.609Z,18.76
2023-05-01T15:45:22.846Z,18.87
2023-05-01T15:47:55.155Z,18.92
2023-05-01T15:50:27.757Z,18.84
2023-05-01T15:53:02.662Z,18.68
2023-05-01T15:55:34.958Z,18.49
2023-05-01T15:58:07.254Z,18.30
2023-05-01T16:00:39.896Z,18.09
2023-05-01T16:03:12.685Z,17.89
2023-05-01T16:05:47.136Z,17.72
2023-05-01T16:08:22.170Z,17.56
2023-05-01T16:10:54.635Z,17.42
2023-05-01T16:13:26.921Z,17.31
2023-05-01T16:15:59.347Z,17.22
2023-05-01T16:18:31.561Z,17.12
2023-05-01T16:21:03.837Z,17.05
2023-05-01T16:23:38.861Z,16.98
2023-05-01T16:26:11.298Z,16.91
2023-05-01T16:28:43.905Z,16.85
2023-05-01T16:31:27.116Z,16.80
2023-05-01T16:34:00.114Z,16.76
2023-05-01T16:36:32.600Z,16.83
2023-05-01T16:39:10.736Z,16.90
2023-05-01T16:41:51.074Z,16.89
2023-05-01T16:44:27.987Z,16.78
2023-05-01T16:47:03.543Z,16.59
2023-05-01T16:49:36.408Z,16.43
2023-05-01T16:52:13.478Z,16.32
2023-05-01T16:54:48.380Z,16.23
2023-05-01T16:57:20.610Z,16.16
2023-05-01T16:59:53.333Z,16.06
2023-05-01T17:02:25.824Z,15.97
2023-05-01T17:04:58.478Z,15.88
2023-05-01T17:07:30.863Z,15.80
2023-05-01T17:10:06.028Z,15.73
2023-05-01T17:12:38.295Z,15.65
2023-05-01T17:15:12.351Z,15.61
2023-05-01T17:17:44.619Z,15.59
2023-05-01T17:20:17.454Z,15.61
2023-05-01T17:22:50.329Z,15.63
2023-05-01T17:25:25.638Z,15.67
2023-05-01T17:27:59.222Z,15.75
2023-05-01T17:30:31.783Z,15.82
2023-05-01T17:33:04.326Z,15.85
2023-05-01T17:35:37.748Z,15.87
2023-05-01T17:38:10.083Z,15.88
2023-05-01T17:40:44.936Z,15.86
2023-05-01T17:43:17.174Z,15.84
2023-05-01T17:45:50.359Z,15.82
2023-05-01T17:48:22.971Z,15.84
2023-05-01T17:50:56.017Z,15.86
2023-05-01T17:53:43.324Z,15.84
2023-05-01T17:56:18.597Z,15.79
2023-05-01T17:58:50.830Z,15.72
2023-05-01T18:01:23.206Z,15.64
2023-05-01T18:03:55.740Z,15.58
2023-05-01T18:06:28.658Z,15.55
2023-05-01T18:09:01.437Z,15.52
2023-05-01T18:11:36.222Z,15.48
2023-05-01T18:14:08.522Z,15.44
2023-05-01T18:16:41.950Z,15.40
2023-05-01T18:19:14.334Z,15.34
2023-05-01T18:22:05.278Z,15.27
2023-05-01T18:24:38.121Z,15.19
2023-05-01T18:27:13.020Z,15.07
2023-05-01T18:29:45.187Z,14.96
2023-05-01T18:32:17.487Z,14.89
2023-05-01T18:34:51.541Z,14.83
2023-05-01T18:37:25.944Z,14.76
2023-05-01T18:39:58.974Z,14.69
2023-05-01T18:42:34.083Z,14.62
2023-05-01T18:45:06.610Z,14.55
2023-05-01T18:47:38.814Z,14.45
2023-05-01T18:50:13.437Z,14.34
2023-05-01T18:52:45.682Z,14.24
2023-05-01T18:55:18.424Z,14.16
2023-05-01T18:57:53.194Z,14.09
2023-05-01T19:00:26.628Z,14.03
2023-05-01T19:02:58.944Z,13.97
2023-05-01T19:05:34.911Z,13.90
2023-05-01T19:08:07.685Z,13.84
2023-05-01T19:10:42.429Z,13.77
2023-05-01T19:13:17.283Z,13.70
2023-05-01T19:15:49.924Z,13.62
2023-05-01T19:18:22.130Z,13.54
2023-05-01T19:20:54.434Z,13.48
2023-05-01T19:23:27.507Z,13.30
2023-05-01T19:26:00.302Z,13.17
2023-05-01T19:28:35.169Z,13.11
2023-05-01T19:31:07.869Z,13.06
2023-05-01T19:33:40.530Z,13.01
2023-05-01T19:36:13.151Z,12.95
2023-05-01T19:38:46.225Z,12.89
2023-05-01T19:41:19.032Z,12.82
2023-05-01T19:44:26.257Z,12.73
2023-05-01T19:46:59.137Z,12.62
2023-05-01T19:49:31.494Z,12.54
2023-05-01T19:52:03.720Z,12.47
2023-05-01T19:54:39.520Z,12.39
2023-05-01T19:57:11.821Z,12.31
2023-05-01T19:59:46.826Z,12.25
2023-05-01T20:02:19.661Z,12.19
2023-05-01T20:04:52.221Z,12.13
2023-05-01T20:07:24.580Z,12.07
2023-05-01T20:09:56.995Z,12.00
2023-05-01T20:12:32.593Z,11.92
2023-05-01T20:15:08.730Z,11.85
2023-05-01T20:17:40.999Z,11.77
2023-05-01T20:20:14.258Z,11.71
2023-05-01T20:22:46.424Z,11.65
2023-05-01T20:25:18.963Z,11.62
2023-05-01T20:27:51.223Z,11.61
2023-05-01T20:30:26.262Z,11.62
2023-05-01T20:32:58.611Z,11.64
2023-05-01T20:35:31.779Z,11.66
2023-05-01T20:38:04.647Z,11.68
2023-05-01T20:40:40.216Z,11.70
2023-05-01T20:43:13.108Z,11.72
2023-05-01T20:45:48.405Z,11.74
2023-05-01T20:48:20.837Z,11.76
2023-05-01T20:50:53.919Z,11.79
2023-05-01T20:53:26.335Z,11.82
2023-05-01T20:55:59.011Z,11.85
2023-05-01T20:58:33.606Z,11.88
2023-05-01T21:01:08.494Z,11.90
2023-05-01T21:03:41.149Z,11.92
2023-05-01T21:06:14.481Z,11.93
2023-05-01T21:08:47.573Z,11.91
2023-05-01T21:11:19.788Z,11.88
2023-05-01T21:13:52.025Z,11.85
2023-05-01T21:16:28.331Z,11.81
2023-05-01T21:19:00.666Z,11.79
2023-05-01T21:21:33.071Z,11.76
2023-05-01T21:24:05.319Z,11.64
2023-05-01T21:26:38.705Z,11.59
2023-05-01T21:29:10.993Z,11.57
2023-05-01T21:31:45.954Z,11.56
2023-05-01T21:34:22.993Z,11.55
2023-05-01T21:36:58.035Z,11.56
2023-05-01T21:39:30.549Z,11.56
2023-05-01T21:42:02.891Z,11.57
2023-05-01T21:44:35.180Z,11.58
2023-05-01T21:47:10.783Z,11.60
2023-05-01T21:49:44.001Z,11.60
2023-05-01T21:52:18.658Z,11.59
2023-05-01T21:54:51.346Z,11.59
2023-05-01T21:57:23.880Z,11.60
2023-05-01T21:59:58.772Z,11.61
2023-05-01T22:02:40.648Z,11.61
2023-05-01T22:05:14.037Z,11.60
2023-05-01T22:07:48.460Z,11.59
2023-05-01T22:10:22.476Z,11.58
2023-05-01T22:12:54.755Z,11.57
2023-05-01T22:15:27.450Z,11.54
2023-05-01T22:18:02.329Z,11.52
2023-05-01T22:20:34.905Z,11.50
2023-05-01T22:23:07.711Z,11.48
2023-05-01T22:25:40.325Z,11.46
2023-05-01T22:28:12.586Z,11.44
2023-05-01T22:30:45.012Z,11.41
2023-05-01T22:33:19.823Z,11.39
2023-05-01T22:35:52.592Z,11.38
2023-05-01T22:38:24.865Z,11.38
2023-05-01T22:40:57.372Z,11.37
2023-05-01T22:43:29.694Z,11.35
2023-05-01T22:46:02.114Z,11.32
2023-05-01T22:48:36.960Z,11.30
2023-05-01T22:51:09.526Z,11.30
2023-05-01T22:53:41.766Z,11.29
2023-05-01T22:56:14.361Z,11.28
2023-05-01T22:58:46.511Z,11.27
2023-05-01T23:01:18.792Z,11.25
2023-05-01T23:03:54.075Z,11.23
2023-05-01T23:06:26.673Z,11.21
2023-05-01T23:08:59.132Z,11.17
2023-05-01T23:11:35.752Z,11.12
2023-05-01T23:14:07.994Z,11.08
2023-05-01T23:16:44.942Z,11.03
2023-05-01T23:19:26.910Z,10.99
2023-05-01T23:22:10.972Z,10.96
2023-05-01T23:24:48.541Z,10.83
2023-05-01T23:27:23.043Z,10.80
2023-05-01T23:30:07.145Z,10.79
2023-05-01T23:32:39.579Z,10.76
2023-05-01T23:35:19.221Z,10.74
2023-05-01T23:37:53.054Z,10.71
2023-05-01T23:40:25.435Z,10.67
2023-05-01T23:42:57.899Z,10.64
2023-05-01T23:45:30.795Z,10.61
2023-05-01T23:48:04.389Z,10.58
2023-05-01T23:50:39.625Z,10.55
2023-05-01T23:53:13.113Z,10.53
2023-05-01T23:55:46.890Z,10.52
2023-05-01T23:58:19.401Z,10.51
